sensor_id;sensor_type;location;lat;lon;timestamp;pressure;altitude;pressure_sealevel;temperature;humidity
18918;BME280;9591;52.742;13.650;2024-03-02T00:00:00;100090.25;;;18.51;41.59
18918;BME280;9591;52.742;13.650;2024-03-02T00:03:11;100081.59;;;18.71;41.12
18918;BME280;9591;52.742;13.650;2024-03-02T00:05:59;100076.91;;;18.38;41.65
18918;BME280;9591;52.742;13.650;2024-03-02T00:08:49;100073.03;;;18.66;41.00
18918;BME280;9591;52.742;13.650;2024-03-02T00:11:44;100072.47;;;18.50;41.45
18918;BME280;9591;52.742;13.650;2024-03-02T00:14:30;100075.25;;;18.48;41.48
18918;BME280;9591;52.742;13.650;2024-03-02T00:17:25;100072.53;;;18.37;41.75
18918;BME280;9591;52.742;13.650;2024-03-02T00:20:37;100071.28;;;18.30;42.04
18918;BME280;9591;52.742;13.650;2024-03-02T00:23:27;100054.69;;;18.84;40.84
18918;BME280;9591;52.742;13.650;2024-03-02T00:26:21;100062.97;;;18.57;41.38
18918;BME280;9591;52.742;13.650;2024-03-02T00:29:15;100062.09;;;18.69;41.24
18918;BME280;9591;52.742;13.650;2024-03-02T00:32:02;100060.94;;;18.37;41.98
18918;BME280;9591;52.742;13.650;2024-03-02T00:34:50;100064.19;;;18.29;42.29
18918;BME280;9591;52.742;13.650;2024-03-02T00:37:36;100059.91;;;18.26;42.25
18918;BME280;9591;52.742;13.650;2024-03-02T00:40:27;100060.38;;;18.20;42.37
18918;BME280;9591;52.742;13.650;2024-03-02T00:43:46;100055.41;;;18.27;42.27
18918;BME280;9591;52.742;13.650;2024-03-02T00:46:36;100058.94;;;18.16;42.71
18918;BME280;9591;52.742;13.650;2024-03-02T00:49:24;100054.38;;;18.64;41.69
18918;BME280;9591;52.742;13.650;2024-03-02T00:52:12;100057.41;;;18.36;42.06
18918;BME280;9591;52.742;13.650;2024-03-02T00:54:59;100050.78;;;18.53;41.54
18918;BME280;9591;52.742;13.650;2024-03-02T00:57:48;100055.06;;;18.31;41.93
18918;BME280;9591;52.742;13.650;2024-03-02T01:00:38;100044.63;;;18.40;41.81
18918;BME280;9591;52.742;13.650;2024-03-02T01:03:31;100055.69;;;18.35;41.64
18918;BME280;9591;52.742;13.650;2024-03-02T01:06:21;100044.66;;;17.92;42.51
18918;BME280;9591;52.742;13.650;2024-03-02T01:09:10;100044.53;;;17.93;42.80
18918;BME280;9591;52.742;13.650;2024-03-02T01:12:00;100055.56;;;18.01;42.69
18918;BME280;9591;52.742;13.650;2024-03-02T01:14:50;100048.66;;;18.10;42.42
18918;BME280;9591;52.742;13.650;2024-03-02T01:17:37;100044.72;;;18.03;42.45
18918;BME280;9591;52.742;13.650;2024-03-02T01:20:38;100047.06;;;18.08;42.67
18918;BME280;9591;52.742;13.650;2024-03-02T01:23:26;100046.25;;;18.18;42.33
18918;BME280;9591;52.742;13.650;2024-03-02T01:26:13;100049.63;;;18.09;42.54
18918;BME280;9591;52.742;13.650;2024-03-02T01:29:01;100035.03;;;18.13;42.78
18918;BME280;9591;52.742;13.650;2024-03-02T01:31:49;100039.47;;;18.01;43.03
18918;BME280;9591;52.742;13.650;2024-03-02T01:34:39;100036.66;;;17.79;43.59
18918;BME280;9591;52.742;13.650;2024-03-02T01:37:29;100036.31;;;17.84;43.51
18918;BME280;9591;52.742;13.650;2024-03-02T01:40:18;100032.78;;;17.83;43.47
18918;BME280;9591;52.742;13.650;2024-03-02T01:43:08;100032.94;;;17.44;44.49
18918;BME280;9591;52.742;13.650;2024-03-02T01:45:55;100028.28;;;18.31;42.47
18918;BME280;9591;52.742;13.650;2024-03-02T01:48:45;100028.97;;;18.22;42.42
18918;BME280;9591;52.742;13.650;2024-03-02T01:51:33;100026.66;;;17.94;43.26
18918;BME280;9591;52.742;13.650;2024-03-02T01:54:26;100028.00;;;18.23;42.76
18918;BME280;9591;52.742;13.650;2024-03-02T01:57:19;100025.09;;;18.26;42.58
18918;BME280;9591;52.742;13.650;2024-03-02T02:00:09;100027.75;;;18.26;42.76
18918;BME280;9591;52.742;13.650;2024-03-02T02:02:59;100015.53;;;18.46;42.10
18918;BME280;9591;52.742;13.650;2024-03-02T02:05:46;100002.34;;;18.67;41.53
18918;BME280;9591;52.742;13.650;2024-03-02T02:08:41;99998.78;;;18.31;42.53
18918;BME280;9591;52.742;13.650;2024-03-02T02:11:32;100003.22;;;18.09;43.07
18918;BME280;9591;52.742;13.650;2024-03-02T02:14:19;99998.63;;;18.22;42.83
18918;BME280;9591;52.742;13.650;2024-03-02T02:17:09;100002.44;;;18.19;42.81
18918;BME280;9591;52.742;13.650;2024-03-02T02:19:56;100005.63;;;18.35;42.62
18918;BME280;9591;52.742;13.650;2024-03-02T02:22:56;100000.78;;;18.41;42.42
18918;BME280;9591;52.742;13.650;2024-03-02T02:25:44;99997.81;;;18.32;42.77
18918;BME280;9591;52.742;13.650;2024-03-02T02:28:33;99995.13;;;18.32;42.67
18918;BME280;9591;52.742;13.650;2024-03-02T02:31:22;99985.38;;;18.31;42.71
18918;BME280;9591;52.742;13.650;2024-03-02T02:34:11;100000.34;;;18.23;42.82
18918;BME280;9591;52.742;13.650;2024-03-02T02:36:58;100000.88;;;18.39;42.66
18918;BME280;9591;52.742;13.650;2024-03-02T02:39:51;99997.31;;;18.27;42.75
18918;BME280;9591;52.742;13.650;2024-03-02T02:42:43;99996.09;;;18.31;42.82
18918;BME280;9591;52.742;13.650;2024-03-02T02:45:30;100003.28;;;18.20;43.03
18918;BME280;9591;52.742;13.650;2024-03-02T02:48:20;100001.22;;;18.34;43.03
18918;BME280;9591;52.742;13.650;2024-03-02T02:51:36;100008.97;;;18.50;42.59
18918;BME280;9591;52.742;13.650;2024-03-02T02:54:25;99999.91;;;18.40;42.92
18918;BME280;9591;52.742;13.650;2024-03-02T02:57:20;100009.34;;;18.57;42.66
18918;BME280;9591;52.742;13.650;2024-03-02T03:00:12;100001.53;;;18.54;42.52
18918;BME280;9591;52.742;13.650;2024-03-02T03:03:10;99990.53;;;18.70;42.40
18918;BME280;9591;52.742;13.650;2024-03-02T03:05:57;99992.09;;;18.61;42.69
18918;BME280;9591;52.742;13.650;2024-03-02T03:08:44;99999.47;;;18.81;42.02
18918;BME280;9591;52.742;13.650;2024-03-02T03:11:31;99994.69;;;19.07;41.47
18918;BME280;9591;52.742;13.650;2024-03-02T03:14:24;99996.00;;;18.68;42.56
18918;BME280;9591;52.742;13.650;2024-03-02T03:17:14;99997.00;;;18.78;42.44
18918;BME280;9591;52.742;13.650;2024-03-02T03:20:03;99994.81;;;18.72;42.76
18918;BME280;9591;52.742;13.650;2024-03-02T03:23:01;99999.78;;;18.65;42.79
18918;BME280;9591;52.742;13.650;2024-03-02T03:25:49;99995.31;;;18.77;42.88
18918;BME280;9591;52.742;13.650;2024-03-02T03:28:36;99994.19;;;18.45;43.83
18918;BME280;9591;52.742;13.650;2024-03-02T03:31:24;99993.38;;;18.55;43.65
18918;BME280;9591;52.742;13.650;2024-03-02T03:34:11;99990.03;;;18.64;43.99
18918;BME280;9591;52.742;13.650;2024-03-02T03:37:01;99992.63;;;18.88;43.47
18918;BME280;9591;52.742;13.650;2024-03-02T03:39:51;100003.72;;;18.84;43.70
18918;BME280;9591;52.742;13.650;2024-03-02T03:42:40;100000.50;;;18.32;44.76
18918;BME280;9591;52.742;13.650;2024-03-02T03:45:27;100006.69;;;17.98;46.04
18918;BME280;9591;52.742;13.650;2024-03-02T03:48:23;100008.91;;;18.04;46.49
18918;BME280;9591;52.742;13.650;2024-03-02T03:51:17;100001.41;;;18.20;46.13
18918;BME280;9591;52.742;13.650;2024-03-02T03:54:03;100003.88;;;19.05;44.02
18918;BME280;9591;52.742;13.650;2024-03-02T03:56:50;99999.09;;;19.30;43.65
18918;BME280;9591;52.742;13.650;2024-03-02T03:59:39;99991.53;;;19.36;43.04
18918;BME280;9591;52.742;13.650;2024-03-02T04:02:28;99994.59;;;19.31;44.03
18918;BME280;9591;52.742;13.650;2024-03-02T04:05:19;100001.41;;;19.35;43.56
18918;BME280;9591;52.742;13.650;2024-03-02T04:08:07;100002.03;;;19.39;43.96
18918;BME280;9591;52.742;13.650;2024-03-02T04:10:55;100001.28;;;19.48;43.84
18918;BME280;9591;52.742;13.650;2024-03-02T04:13:42;100002.63;;;19.42;44.33
18918;BME280;9591;52.742;13.650;2024-03-02T04:16:32;100002.66;;;19.53;44.22
18918;BME280;9591;52.742;13.650;2024-03-02T04:19:21;100000.91;;;19.86;43.25
18918;BME280;9591;52.742;13.650;2024-03-02T04:22:12;100000.03;;;19.85;43.66
18918;BME280;9591;52.742;13.650;2024-03-02T04:25:10;99998.25;;;19.63;44.75
18918;BME280;9591;52.742;13.650;2024-03-02T04:27:59;100000.94;;;19.63;44.90
18918;BME280;9591;52.742;13.650;2024-03-02T04:30:48;100005.59;;;19.61;44.85
18918;BME280;9591;52.742;13.650;2024-03-02T04:33:37;100001.91;;;19.62;44.79
18918;BME280;9591;52.742;13.650;2024-03-02T04:36:27;100000.06;;;19.74;44.83
18918;BME280;9591;52.742;13.650;2024-03-02T04:39:20;100006.44;;;20.05;44.28
18918;BME280;9591;52.742;13.650;2024-03-02T04:42:07;100000.41;;;19.92;44.70
18918;BME280;9591;52.742;13.650;2024-03-02T04:44:54;99998.84;;;19.78;44.93
18918;BME280;9591;52.742;13.650;2024-03-02T04:47:45;100002.84;;;19.84;45.08
18918;BME280;9591;52.742;13.650;2024-03-02T04:50:38;100004.13;;;20.01;44.79
18918;BME280;9591;52.742;13.650;2024-03-02T04:53:27;100014.22;;;19.87;45.36
18918;BME280;9591;52.742;13.650;2024-03-02T04:56:16;100012.56;;;19.96;45.46
18918;BME280;9591;52.742;13.650;2024-03-02T04:59:21;100013.53;;;19.95;45.20
18918;BME280;9591;52.742;13.650;2024-03-02T05:02:07;100014.03;;;20.00;45.18
18918;BME280;9591;52.742;13.650;2024-03-02T05:04:57;100012.75;;;19.83;45.48
18918;BME280;9591;52.742;13.650;2024-03-02T05:07:47;100017.44;;;20.02;45.26
18918;BME280;9591;52.742;13.650;2024-03-02T05:10:34;100014.16;;;19.98;45.25
18918;BME280;9591;52.742;13.650;2024-03-02T05:13:24;100013.41;;;19.96;45.66
18918;BME280;9591;52.742;13.650;2024-03-02T05:16:17;100012.06;;;20.02;45.51
18918;BME280;9591;52.742;13.650;2024-03-02T05:19:07;100010.44;;;20.11;45.41
18918;BME280;9591;52.742;13.650;2024-03-02T05:21:56;100011.31;;;20.11;45.20
18918;BME280;9591;52.742;13.650;2024-03-02T05:24:44;100017.50;;;20.23;45.27
18918;BME280;9591;52.742;13.650;2024-03-02T05:27:33;100021.72;;;20.37;45.01
18918;BME280;9591;52.742;13.650;2024-03-02T05:30:23;100018.22;;;20.25;45.15
18918;BME280;9591;52.742;13.650;2024-03-02T05:33:16;100022.09;;;20.32;45.16
18918;BME280;9591;52.742;13.650;2024-03-02T05:36:04;100023.69;;;20.35;44.75
18918;BME280;9591;52.742;13.650;2024-03-02T05:38:50;100029.56;;;20.40;44.45
18918;BME280;9591;52.742;13.650;2024-03-02T05:41:41;100033.25;;;20.27;44.92
18918;BME280;9591;52.742;13.650;2024-03-02T05:44:28;100042.03;;;20.29;44.99
18918;BME280;9591;52.742;13.650;2024-03-02T05:47:19;100033.72;;;20.65;44.18
18918;BME280;9591;52.742;13.650;2024-03-02T05:50:07;100036.34;;;20.55;44.76
18918;BME280;9591;52.742;13.650;2024-03-02T05:52:56;100046.50;;;20.51;45.11
18918;BME280;9591;52.742;13.650;2024-03-02T05:55:45;100052.66;;;20.84;44.21
18918;BME280;9591;52.742;13.650;2024-03-02T05:58:32;100062.16;;;20.78;44.39
18918;BME280;9591;52.742;13.650;2024-03-02T06:01:39;100058.66;;;20.87;44.71
18918;BME280;9591;52.742;13.650;2024-03-02T06:04:32;100061.16;;;20.79;45.04
18918;BME280;9591;52.742;13.650;2024-03-02T06:07:20;100059.91;;;21.04;44.23
18918;BME280;9591;52.742;13.650;2024-03-02T06:10:07;100066.47;;;21.32;44.23
18918;BME280;9591;52.742;13.650;2024-03-02T06:12:59;100068.66;;;21.48;43.97
18918;BME280;9591;52.742;13.650;2024-03-02T06:15:48;100070.06;;;21.42;44.34
18918;BME280;9591;52.742;13.650;2024-03-02T06:18:35;100069.94;;;21.44;44.16
18918;BME280;9591;52.742;13.650;2024-03-02T06:21:32;100071.59;;;21.35;44.37
18918;BME280;9591;52.742;13.650;2024-03-02T06:24:20;100076.63;;;21.08;45.22
18918;BME280;9591;52.742;13.650;2024-03-02T06:27:07;100066.84;;;21.48;44.23
18918;BME280;9591;52.742;13.650;2024-03-02T06:29:53;100068.88;;;21.66;43.69
18918;BME280;9591;52.742;13.650;2024-03-02T06:32:43;100076.41;;;21.62;43.89
18918;BME280;9591;52.742;13.650;2024-03-02T06:35:35;100079.50;;;21.57;43.94
18918;BME280;9591;52.742;13.650;2024-03-02T06:38:24;100076.66;;;21.69;43.68
18918;BME280;9591;52.742;13.650;2024-03-02T06:41:14;100072.66;;;21.53;43.86
18918;BME280;9591;52.742;13.650;2024-03-02T06:44:01;100079.91;;;21.11;44.88
18918;BME280;9591;52.742;13.650;2024-03-02T06:46:50;100073.78;;;21.51;44.31
18918;BME280;9591;52.742;13.650;2024-03-02T06:49:37;100072.31;;;21.37;44.31
18918;BME280;9591;52.742;13.650;2024-03-02T06:52:24;100074.91;;;21.48;44.29
18918;BME280;9591;52.742;13.650;2024-03-02T06:55:19;100078.94;;;21.64;43.72
18918;BME280;9591;52.742;13.650;2024-03-02T06:58:06;100084.63;;;21.70;43.65
18918;BME280;9591;52.742;13.650;2024-03-02T07:00:54;100090.81;;;21.51;44.04
18918;BME280;9591;52.742;13.650;2024-03-02T07:03:41;100089.03;;;21.71;43.55
18918;BME280;9591;52.742;13.650;2024-03-02T07:06:30;100103.97;;;21.85;43.28
18918;BME280;9591;52.742;13.650;2024-03-02T07:09:19;100097.38;;;21.58;43.88
18918;BME280;9591;52.742;13.650;2024-03-02T07:12:14;100105.44;;;21.99;43.00
18918;BME280;9591;52.742;13.650;2024-03-02T07:15:01;100099.03;;;21.50;43.79
18918;BME280;9591;52.742;13.650;2024-03-02T07:18:06;100090.50;;;21.45;43.96
18918;BME280;9591;52.742;13.650;2024-03-02T07:20:53;100097.97;;;22.02;42.90
18918;BME280;9591;52.742;13.650;2024-03-02T07:23:58;100097.22;;;22.00;42.96
18918;BME280;9591;52.742;13.650;2024-03-02T07:26:45;100099.72;;;21.92;43.14
18918;BME280;9591;52.742;13.650;2024-03-02T07:29:58;100109.34;;;21.85;43.13
18918;BME280;9591;52.742;13.650;2024-03-02T07:32:45;100110.78;;;21.89;43.18
18918;BME280;9591;52.742;13.650;2024-03-02T07:35:33;100112.00;;;22.06;42.78
18918;BME280;9591;52.742;13.650;2024-03-02T07:38:20;100115.31;;;21.88;43.29
18918;BME280;9591;52.742;13.650;2024-03-02T07:41:07;100130.22;;;22.13;42.83
18918;BME280;9591;52.742;13.650;2024-03-02T07:43:54;100133.97;;;21.71;43.37
18918;BME280;9591;52.742;13.650;2024-03-02T07:46:45;100144.84;;;21.90;43.42
18918;BME280;9591;52.742;13.650;2024-03-02T07:50:00;100149.06;;;21.83;43.26
18918;BME280;9591;52.742;13.650;2024-03-02T07:52:53;100149.75;;;21.75;43.37
18918;BME280;9591;52.742;13.650;2024-03-02T07:55:47;100159.19;;;21.90;43.49
18918;BME280;9591;52.742;13.650;2024-03-02T07:58:34;100159.31;;;21.89;42.75
18918;BME280;9591;52.742;13.650;2024-03-02T08:01:24;100174.34;;;22.12;42.50
18918;BME280;9591;52.742;13.650;2024-03-02T08:04:12;100163.44;;;21.93;43.15
18918;BME280;9591;52.742;13.650;2024-03-02T08:07:02;100164.97;;;22.16;42.71
18918;BME280;9591;52.742;13.650;2024-03-02T08:09:53;100164.16;;;21.95;42.95
18918;BME280;9591;52.742;13.650;2024-03-02T08:12:40;100167.66;;;21.86;43.15
18918;BME280;9591;52.742;13.650;2024-03-02T08:15:30;100163.59;;;21.61;43.20
18918;BME280;9591;52.742;13.650;2024-03-02T08:18:18;100157.69;;;21.77;43.52
18918;BME280;9591;52.742;13.650;2024-03-02T08:21:10;100164.19;;;21.74;43.08
18918;BME280;9591;52.742;13.650;2024-03-02T08:24:05;100169.38;;;21.87;43.43
18918;BME280;9591;52.742;13.650;2024-03-02T08:27:01;100166.28;;;22.22;43.01
18918;BME280;9591;52.742;13.650;2024-03-02T08:29:48;100170.75;;;22.02;43.38
18918;BME280;9591;52.742;13.650;2024-03-02T08:32:34;100175.59;;;22.08;42.95
18918;BME280;9591;52.742;13.650;2024-03-02T08:35:28;100176.44;;;22.09;42.64
18918;BME280;9591;52.742;13.650;2024-03-02T08:38:25;100183.13;;;22.14;42.37
18918;BME280;9591;52.742;13.650;2024-03-02T08:41:13;100181.00;;;21.87;42.81
18918;BME280;9591;52.742;13.650;2024-03-02T08:44:03;100184.53;;;22.09;42.24
18918;BME280;9591;52.742;13.650;2024-03-02T08:46:54;100192.31;;;22.02;42.13
18918;BME280;9591;52.742;13.650;2024-03-02T08:49:43;100189.41;;;21.94;42.53
18918;BME280;9591;52.742;13.650;2024-03-02T08:52:34;100189.69;;;21.61;43.00
18918;BME280;9591;52.742;13.650;2024-03-02T08:55:25;100186.84;;;21.92;43.17
18918;BME280;9591;52.742;13.650;2024-03-02T08:58:14;100196.94;;;22.21;42.59
18918;BME280;9591;52.742;13.650;2024-03-02T09:01:01;100197.28;;;22.56;42.12
18918;BME280;9591;52.742;13.650;2024-03-02T09:03:53;100196.75;;;22.63;41.30
18918;BME280;9591;52.742;13.650;2024-03-02T09:06:42;100185.38;;;22.49;41.64
18918;BME280;9591;52.742;13.650;2024-03-02T09:09:29;100192.19;;;22.44;41.60
18918;BME280;9591;52.742;13.650;2024-03-02T09:12:21;100194.44;;;22.39;41.33
18918;BME280;9591;52.742;13.650;2024-03-02T09:15:12;100189.84;;;22.89;40.84
18918;BME280;9591;52.742;13.650;2024-03-02T09:17:59;100192.94;;;22.75;40.56
18918;BME280;9591;52.742;13.650;2024-03-02T09:20:48;100198.38;;;23.04;40.32
18918;BME280;9591;52.742;13.650;2024-03-02T09:23:38;100200.66;;;23.18;39.50
18918;BME280;9591;52.742;13.650;2024-03-02T09:26:33;100196.66;;;22.83;40.48
18918;BME280;9591;52.742;13.650;2024-03-02T09:29:24;100196.94;;;22.80;40.65
18918;BME280;9591;52.742;13.650;2024-03-02T09:32:16;100210.59;;;23.17;39.83
18918;BME280;9591;52.742;13.650;2024-03-02T09:35:04;100215.28;;;23.35;39.37
18918;BME280;9591;52.742;13.650;2024-03-02T09:37:52;100213.13;;;23.67;39.03
18918;BME280;9591;52.742;13.650;2024-03-02T09:40:42;100204.16;;;23.47;39.41
18918;BME280;9591;52.742;13.650;2024-03-02T09:43:31;100215.88;;;23.38;39.86
18918;BME280;9591;52.742;13.650;2024-03-02T09:46:20;100211.84;;;23.42;39.29
18918;BME280;9591;52.742;13.650;2024-03-02T09:49:07;100212.88;;;23.32;39.27
18918;BME280;9591;52.742;13.650;2024-03-02T09:51:54;100210.09;;;23.80;38.54
18918;BME280;9591;52.742;13.650;2024-03-02T09:55:07;100220.69;;;23.35;38.90
18918;BME280;9591;52.742;13.650;2024-03-02T09:58:00;100211.31;;;22.91;39.22
18918;BME280;9591;52.742;13.650;2024-03-02T10:00:47;100207.56;;;23.49;39.13
18918;BME280;9591;52.742;13.650;2024-03-02T10:03:42;100210.41;;;23.77;38.04
18918;BME280;9591;52.742;13.650;2024-03-02T10:06:39;100215.75;;;23.96;37.67
18918;BME280;9591;52.742;13.650;2024-03-02T10:09:28;100222.09;;;23.68;37.94
18918;BME280;9591;52.742;13.650;2024-03-02T10:12:18;100214.25;;;23.65;37.70
18918;BME280;9591;52.742;13.650;2024-03-02T10:15:06;100214.38;;;23.82;36.92
18918;BME280;9591;52.742;13.650;2024-03-02T10:17:55;100220.59;;;23.93;36.86
18918;BME280;9591;52.742;13.650;2024-03-02T10:20:47;100217.28;;;24.08;36.93
18918;BME280;9591;52.742;13.650;2024-03-02T10:23:37;100222.66;;;23.62;37.61
18918;BME280;9591;52.742;13.650;2024-03-02T10:26:26;100217.47;;;23.88;37.89
18918;BME280;9591;52.742;13.650;2024-03-02T10:29:13;100214.75;;;23.97;37.07
18918;BME280;9591;52.742;13.650;2024-03-02T10:32:02;100218.22;;;23.70;37.64
18918;BME280;9591;52.742;13.650;2024-03-02T10:34:52;100214.47;;;23.91;36.98
18918;BME280;9591;52.742;13.650;2024-03-02T10:37:47;100214.31;;;24.02;37.09
18918;BME280;9591;52.742;13.650;2024-03-02T10:40:34;100217.78;;;24.22;36.60
18918;BME280;9591;52.742;13.650;2024-03-02T10:43:22;100216.34;;;23.90;36.74
18918;BME280;9591;52.742;13.650;2024-03-02T10:46:09;100222.59;;;23.91;37.07
18918;BME280;9591;52.742;13.650;2024-03-02T10:48:58;100219.47;;;23.85;36.87
18918;BME280;9591;52.742;13.650;2024-03-02T10:51:48;100214.88;;;24.05;36.49
18918;BME280;9591;52.742;13.650;2024-03-02T10:54:42;100210.88;;;24.37;36.00
18918;BME280;9591;52.742;13.650;2024-03-02T10:57:39;100214.78;;;24.25;35.78
18918;BME280;9591;52.742;13.650;2024-03-02T11:00:35;100216.13;;;24.11;35.45
18918;BME280;9591;52.742;13.650;2024-03-02T11:03:33;100216.00;;;24.03;36.52
18918;BME280;9591;52.742;13.650;2024-03-02T11:06:23;100188.28;;;23.91;35.75
18918;BME280;9591;52.742;13.650;2024-03-02T11:09:29;100212.16;;;24.05;36.08
18918;BME280;9591;52.742;13.650;2024-03-02T11:12:24;100209.84;;;24.47;35.14
18918;BME280;9591;52.742;13.650;2024-03-02T11:15:17;100198.69;;;24.96;34.50
18918;BME280;9591;52.742;13.650;2024-03-02T11:18:07;100200.69;;;24.94;34.18
18918;BME280;9591;52.742;13.650;2024-03-02T11:21:03;100203.25;;;25.31;33.60
18918;BME280;9591;52.742;13.650;2024-03-02T11:23:53;100204.59;;;25.70;32.78
18918;BME280;9591;52.742;13.650;2024-03-02T11:26:41;100206.69;;;25.76;32.68
18918;BME280;9591;52.742;13.650;2024-03-02T11:29:47;100202.56;;;25.72;33.21
18918;BME280;9591;52.742;13.650;2024-03-02T11:32:34;100204.72;;;24.90;34.08
18918;BME280;9591;52.742;13.650;2024-03-02T11:35:21;100195.59;;;24.91;34.06
18918;BME280;9591;52.742;13.650;2024-03-02T11:38:11;100193.41;;;24.76;33.45
18918;BME280;9591;52.742;13.650;2024-03-02T11:41:13;100193.06;;;25.07;33.12
18918;BME280;9591;52.742;13.650;2024-03-02T11:44:00;100199.44;;;24.88;33.83
18918;BME280;9591;52.742;13.650;2024-03-02T11:47:06;100191.69;;;25.03;33.95
18918;BME280;9591;52.742;13.650;2024-03-02T11:50:47;100197.75;;;25.23;33.37
18918;BME280;9591;52.742;13.650;2024-03-02T11:53:39;100191.91;;;25.53;32.38
18918;BME280;9591;52.742;13.650;2024-03-02T11:56:31;100193.97;;;25.77;32.42
18918;BME280;9591;52.742;13.650;2024-03-02T11:59:19;100186.88;;;25.84;32.14
18918;BME280;9591;52.742;13.650;2024-03-02T12:02:17;100192.69;;;25.45;32.34
18918;BME280;9591;52.742;13.650;2024-03-02T12:05:07;100196.31;;;25.72;31.72
18918;BME280;9591;52.742;13.650;2024-03-02T12:08:00;100201.31;;;25.85;32.07
18918;BME280;9591;52.742;13.650;2024-03-02T12:11:01;100211.56;;;25.73;31.93
18918;BME280;9591;52.742;13.650;2024-03-02T12:13:53;100197.78;;;25.66;31.41
18918;BME280;9591;52.742;13.650;2024-03-02T12:16:44;100206.81;;;25.31;32.50
18918;BME280;9591;52.742;13.650;2024-03-02T12:19:33;100206.56;;;24.71;33.22
18918;BME280;9591;52.742;13.650;2024-03-02T12:22:22;100195.03;;;24.87;32.81
18918;BME280;9591;52.742;13.650;2024-03-02T12:25:11;100200.69;;;25.29;31.87
18918;BME280;9591;52.742;13.650;2024-03-02T12:28:01;100196.09;;;24.59;33.33
18918;BME280;9591;52.742;13.650;2024-03-02T12:30:50;100197.72;;;24.97;33.52
18918;BME280;9591;52.742;13.650;2024-03-02T12:33:42;100203.84;;;24.71;32.94
18918;BME280;9591;52.742;13.650;2024-03-02T12:36:37;100201.13;;;24.99;31.91
18918;BME280;9591;52.742;13.650;2024-03-02T12:39:24;100196.81;;;24.78;32.90
18918;BME280;9591;52.742;13.650;2024-03-02T12:42:16;100195.97;;;24.96;32.63
18918;BME280;9591;52.742;13.650;2024-03-02T12:45:04;100197.84;;;24.95;31.81
18918;BME280;9591;52.742;13.650;2024-03-02T12:47:53;100200.16;;;24.45;33.33
18918;BME280;9591;52.742;13.650;2024-03-02T12:50:43;100191.34;;;24.88;32.13
18918;BME280;9591;52.742;13.650;2024-03-02T12:53:45;100189.16;;;24.92;32.41
18918;BME280;9591;52.742;13.650;2024-03-02T12:56:35;100182.09;;;25.34;32.04
18918;BME280;9591;52.742;13.650;2024-03-02T12:59:33;100185.88;;;24.98;32.60
18918;BME280;9591;52.742;13.650;2024-03-02T13:02:23;100184.50;;;25.20;33.05
18918;BME280;9591;52.742;13.650;2024-03-02T13:05:09;100190.81;;;25.02;32.52
18918;BME280;9591;52.742;13.650;2024-03-02T13:07:59;100186.88;;;24.97;32.71
18918;BME280;9591;52.742;13.650;2024-03-02T13:10:51;100189.78;;;24.86;32.16
18918;BME280;9591;52.742;13.650;2024-03-02T13:13:38;100186.69;;;25.16;31.65
18918;BME280;9591;52.742;13.650;2024-03-02T13:16:25;100186.75;;;25.24;31.96
18918;BME280;9591;52.742;13.650;2024-03-02T13:19:22;100184.63;;;25.10;31.78
18918;BME280;9591;52.742;13.650;2024-03-02T13:22:09;100186.66;;;25.08;31.97
18918;BME280;9591;52.742;13.650;2024-03-02T13:25:22;100186.84;;;25.14;31.95
18918;BME280;9591;52.742;13.650;2024-03-02T13:28:12;100184.38;;;24.86;31.95
18918;BME280;9591;52.742;13.650;2024-03-02T13:31:02;100182.13;;;25.16;32.05
18918;BME280;9591;52.742;13.650;2024-03-02T13:33:49;100181.66;;;25.21;32.21
18918;BME280;9591;52.742;13.650;2024-03-02T13:36:38;100189.34;;;25.08;32.62
18918;BME280;9591;52.742;13.650;2024-03-02T13:39:28;100184.28;;;24.95;31.96
18918;BME280;9591;52.742;13.650;2024-03-02T13:42:18;100176.91;;;24.97;32.34
18918;BME280;9591;52.742;13.650;2024-03-02T13:45:14;100180.09;;;25.19;32.15
18918;BME280;9591;52.742;13.650;2024-03-02T13:48:02;100173.72;;;25.02;32.62
18918;BME280;9591;52.742;13.650;2024-03-02T13:51:04;100176.25;;;24.86;32.81
18918;BME280;9591;52.742;13.650;2024-03-02T13:53:52;100180.81;;;25.21;32.39
18918;BME280;9591;52.742;13.650;2024-03-02T13:56:39;100187.66;;;25.07;32.30
18918;BME280;9591;52.742;13.650;2024-03-02T13:59:27;100185.75;;;24.90;33.21
18918;BME280;9591;52.742;13.650;2024-03-02T14:02:18;100187.47;;;24.45;32.53
18918;BME280;9591;52.742;13.650;2024-03-02T14:05:05;100184.41;;;24.03;33.46
18918;BME280;9591;52.742;13.650;2024-03-02T14:08:01;100188.44;;;24.99;32.30
18918;BME280;9591;52.742;13.650;2024-03-02T14:10:48;100184.56;;;25.02;32.22
18918;BME280;9591;52.742;13.650;2024-03-02T14:13:35;100185.75;;;24.90;32.43
18918;BME280;9591;52.742;13.650;2024-03-02T14:16:26;100187.78;;;24.88;32.41
18918;BME280;9591;52.742;13.650;2024-03-02T14:19:20;100189.50;;;25.06;31.84
18918;BME280;9591;52.742;13.650;2024-03-02T14:22:07;100187.38;;;25.18;32.03
18918;BME280;9591;52.742;13.650;2024-03-02T14:24:59;100197.88;;;25.13;32.06
18918;BME280;9591;52.742;13.650;2024-03-02T14:27:53;100186.44;;;24.74;32.67
18918;BME280;9591;52.742;13.650;2024-03-02T14:31:05;100180.56;;;24.78;32.55
18918;BME280;9591;52.742;13.650;2024-03-02T14:34:01;100183.31;;;24.96;32.59
18918;BME280;9591;52.742;13.650;2024-03-02T14:36:52;100184.16;;;24.97;32.24
18918;BME280;9591;52.742;13.650;2024-03-02T14:39:39;100180.47;;;24.70;32.71
18918;BME280;9591;52.742;13.650;2024-03-02T14:42:30;100184.28;;;24.77;32.70
18918;BME280;9591;52.742;13.650;2024-03-02T14:45:44;100187.50;;;24.63;32.91
18918;BME280;9591;52.742;13.650;2024-03-02T14:48:30;100186.31;;;24.93;32.77
18918;BME280;9591;52.742;13.650;2024-03-02T14:51:20;100180.84;;;25.03;32.13
18918;BME280;9591;52.742;13.650;2024-03-02T14:54:13;100185.22;;;24.86;32.00